Weather at Wiarton Airport

Public forecast

Using degrees Celsius for public forecast. Weather courtesy of forecast.io.

Current aviation weather report (METAR) for Wiarton Airport

Retrieved 2020/11/25 08:00 UTC (8 minutes ago):

CYVV 250800Z 15009KT 2SM -SN VV012 00/00 A3001 RMK SN8 /S03/ SLP175

Aviation forecast (TAF) for Wiarton Airport

Forecast is more than 12 hours old.

Retrieved 2020/11/24 20:00 UTC (12 hours ago):

TAF CYVV 241938Z 2420/2424 17008KT P6SM OVC020 TEMPO 2420/2424 SCT020 OVC090 BECMG 2420/2422 13008KT RMK NXT FCST WILL BE ISSUED AT 251145Z